CPX769 Details

Departure: Liège Airport (EBLG)
Arrival: Indira Gandhi International Airport (VIDP) at N/A
Route: LNO MTR Z719 OSBIT UZ205 LULAR Z205 ABUDO NARKA Z650 TOMET L624 ADINA L851 ERZ W71 MUS OTKEP UM688 PEBAD UP975 SESRA M677 ITBUL M677 LOVEM M677 KURTU P321 NOLSU P307 VAXIM RASKI L639 AAE Q3 BUBNU Q1 DIPAS DIPAS5D
Notes:


Current Weather Information
EBLG 190620Z 18011KT 9999 -RA SCT017 BKN034 11/10 Q1004 TEMPO 4000 -RA BKN015
VIDP 190630Z 00000KT 2500 HZ FEW040 SCT100 30/17 Q1017 NOSIG